Time;durP1;ratioP1;P1;durP2;ratioP2;P2;SDS_P1;SDS_P2;PMS_P1;PMS_P2;Temp;Humidity;BMP_temperature;BMP_pressure;BME280_temperature;BME280_humidity;BME280_pressure;Samples;Min_cycle;Max_cycle;Signal;HPM_P1;HPM_P2
2023/03/23 00:00:47;;;;;;;2.08;1.00;;;16.30;97.80;;;;;;5052605;28;20048;-71
2023/03/23 00:03:12;;;;;;;1.65;0.70;;;16.30;97.80;;;;;;5052463;28;20504;-70
2023/03/23 00:05:40;;;;;;;2.83;1.00;;;16.40;97.80;;;;;;5051932;28;20051;-70
2023/03/23 00:08:08;;;;;;;3.05;1.23;;;16.40;97.70;;;;;;5052814;28;20017;-71
2023/03/23 00:10:35;;;;;;;1.63;1.10;;;16.40;97.60;;;;;;5052557;28;20017;-71
2023/03/23 00:13:02;;;;;;;3.60;1.20;;;16.30;97.70;;;;;;5052261;28;20017;-71
2023/03/23 00:15:32;;;;;;;2.22;1.10;;;16.30;97.60;;;;;;5052312;28;20359;-71
2023/03/23 00:18:02;;;;;;;4.15;1.33;;;16.30;97.60;;;;;;5052186;28;20131;-72
2023/03/23 00:20:40;;;;;;;2.88;0.98;;;16.30;97.70;;;;;;5051932;28;20078;-71
2023/03/23 00:23:06;;;;;;;3.28;1.40;;;16.20;97.60;;;;;;5052547;28;20021;-71
2023/03/23 00:25:32;;;;;;;2.08;1.00;;;16.20;97.70;;;;;;5052151;28;20021;-70
2023/03/23 00:27:58;;;;;;;2.00;1.20;;;16.20;97.70;;;;;;5052039;28;20422;-71
2023/03/23 00:30:23;;;;;;;2.20;1.20;;;16.20;97.70;;;;;;5055528;28;20048;-70
2023/03/23 00:32:50;;;;;;;1.45;0.90;;;16.20;97.80;;;;;;5054861;28;20056;-70
2023/03/23 00:35:17;;;;;;;1.65;0.73;;;16.20;97.80;;;;;;5055709;28;20056;-71
2023/03/23 00:37:43;;;;;;;1.70;0.98;;;16.20;97.90;;;;;;5056194;28;20024;-70
2023/03/23 00:40:10;;;;;;;2.53;0.95;;;16.20;97.80;;;;;;5056149;28;20036;-71
2023/03/23 00:42:36;;;;;;;1.70;1.02;;;16.20;97.80;;;;;;5056058;28;20390;-71
2023/03/23 00:45:04;;;;;;;3.58;1.05;;;16.20;97.80;;;;;;5055693;28;20029;-71
2023/03/23 00:47:30;;;;;;;2.47;1.20;;;16.20;97.80;;;;;;5055998;28;20013;-70
2023/03/23 00:49:56;;;;;;;1.10;0.80;;;16.20;97.80;;;;;;5055534;28;20051;-70
2023/03/23 00:52:22;;;;;;;2.05;0.80;;;16.20;97.80;;;;;;5055867;28;20449;-71
2023/03/23 00:54:47;;;;;;;2.38;1.08;;;16.20;97.80;;;;;;5055512;28;20028;-71
2023/03/23 00:57:13;;;;;;;1.73;1.00;;;16.20;97.80;;;;;;5055699;28;20363;-71
2023/03/23 00:59:38;;;;;;;2.20;1.00;;;16.20;97.70;;;;;;5055261;28;20041;-71
2023/03/23 01:02:04;;;;;;;2.78;1.13;;;16.20;97.80;;;;;;5055989;28;20490;-70
2023/03/23 01:04:31;;;;;;;2.15;1.20;;;16.20;97.80;;;;;;5055320;28;20032;-70
2023/03/23 01:06:57;;;;;;;2.95;1.25;;;16.20;97.80;;;;;;5055642;28;20021;-71
2023/03/23 01:09:23;;;;;;;1.90;0.70;;;16.20;97.80;;;;;;5055312;28;20025;-71
2023/03/23 01:11:50;;;;;;;1.80;0.65;;;16.20;97.80;;;;;;5055310;28;20428;-71
2023/03/23 01:14:18;;;;;;;1.58;0.82;;;16.20;97.80;;;;;;5055331;28;20025;-71
2023/03/23 01:16:44;;;;;;;1.70;0.90;;;16.20;97.80;;;;;;5053988;28;20440;-72
2023/03/23 01:19:10;;;;;;;2.65;0.68;;;16.20;97.80;;;;;;5054922;28;20497;-71
2023/03/23 01:21:36;;;;;;;1.52;0.55;;;16.20;97.80;;;;;;5055225;28;20024;-71
2023/03/23 01:24:02;;;;;;;2.30;0.88;;;16.20;97.80;;;;;;5055082;28;20466;-71
2023/03/23 01:26:28;;;;;;;1.75;0.75;;;16.20;97.80;;;;;;5055047;28;20063;-71
2023/03/23 01:28:54;;;;;;;1.35;0.98;;;16.20;97.80;;;;;;5055062;28;20025;-71
2023/03/23 01:31:23;;;;;;;2.70;0.88;;;16.20;97.80;;;;;;5055562;28;20108;-70
2023/03/23 01:33:52;;;;;;;1.50;0.63;;;16.20;97.70;;;;;;5054588;28;20112;-71
2023/03/23 01:36:28;;;;;;;1.55;0.80;;;16.20;97.70;;;;;;5055058;28;20017;-71
2023/03/23 01:38:55;;;;;;;2.35;0.90;;;16.10;97.70;;;;;;5054896;28;20029;-71
2023/03/23 01:41:21;;;;;;;2.08;1.20;;;16.10;97.70;;;;;;5053754;28;20025;-71
2023/03/23 01:44:03;;;;;;;2.45;1.10;;;16.20;97.80;;;;;;5054667;28;20024;-71
2023/03/23 01:46:32;;;;;;;0.98;0.50;;;16.20;97.80;;;;;;5054920;28;20025;-71
2023/03/23 01:49:06;;;;;;;2.17;0.80;;;16.20;97.80;;;;;;5054543;28;20588;-71
2023/03/23 01:51:34;;;;;;;1.83;0.82;;;16.20;97.80;;;;;;5055049;28;20028;-71
2023/03/23 01:54:04;;;;;;;1.88;0.70;;;16.20;97.80;;;;;;5054398;28;20025;-71
2023/03/23 01:56:37;;;;;;;1.40;0.75;;;16.10;97.70;;;;;;5054592;28;20032;-71
2023/03/23 01:59:03;;;;;;;1.08;0.70;;;16.20;97.80;;;;;;5054692;28;20039;-71
2023/03/23 02:01:29;;;;;;;1.00;0.52;;;16.10;97.80;;;;;;5054199;28;20033;-71
2023/03/23 02:03:57;;;;;;;1.08;0.50;;;16.10;97.80;;;;;;5054434;28;20029;-72
2023/03/23 02:06:24;;;;;;;1.73;0.70;;;16.10;97.70;;;;;;5054202;28;20032;-71
2023/03/23 02:08:51;;;;;;;1.73;0.80;;;16.10;97.80;;;;;;5054377;28;20417;-71
2023/03/23 02:11:19;;;;;;;2.35;0.88;;;16.10;97.70;;;;;;5053097;28;20017;-71
2023/03/23 02:13:46;;;;;;;1.98;0.60;;;16.20;97.70;;;;;;5054198;28;20486;-71
2023/03/23 02:16:20;;;;;;;2.40;0.40;;;16.20;97.70;;;;;;5053754;28;20115;-71
2023/03/23 02:18:52;;;;;;;1.98;0.60;;;16.20;97.70;;;;;;5054287;28;20033;-71
2023/03/23 02:21:21;;;;;;;1.05;0.60;;;16.20;97.60;;;;;;5054109;28;20443;-71
2023/03/23 02:24:24;;;;;;;2.10;0.70;;;16.20;97.60;;;;;;5054010;28;20017;-71
2023/03/23 02:27:03;;;;;;;2.03;0.73;;;16.20;97.50;;;;;;5053833;28;20079;-71
2023/03/23 02:29:46;;;;;;;3.13;1.10;;;16.20;97.60;;;;;;5053923;28;20444;-71
2023/03/23 02:32:30;;;;;;;1.98;0.80;;;16.10;97.50;;;;;;5053635;28;20036;-71
2023/03/23 02:35:06;;;;;;;1.50;0.60;;;16.10;97.50;;;;;;5053835;28;20047;-71
2023/03/23 02:37:51;;;;;;;1.55;0.57;;;16.10;97.60;;;;;;5053888;28;20017;-71
2023/03/23 02:40:25;;;;;;;1.85;0.65;;;16.10;97.60;;;;;;5053630;28;20119;-71
2023/03/23 02:42:55;;;;;;;0.88;0.50;;;16.10;97.50;;;;;;5053520;28;20502;-71
2023/03/23 02:45:23;;;;;;;0.82;0.40;;;16.10;97.50;;;;;;5053473;28;20035;-72
2023/03/23 02:47:52;;;;;;;1.38;0.47;;;16.10;97.40;;;;;;5053436;28;20014;-71
2023/03/23 02:50:21;;;;;;;1.70;0.60;;;16.10;97.30;;;;;;5053647;28;20359;-72
2023/03/23 02:52:48;;;;;;;1.48;0.50;;;16.10;97.30;;;;;;5053028;28;20032;-71
2023/03/23 02:55:15;;;;;;;2.17;0.52;;;16.20;97.30;;;;;;5053558;28;20025;-71
2023/03/23 02:57:43;;;;;;;1.13;0.50;;;16.10;97.30;;;;;;5053228;28;20021;-71
2023/03/23 03:00:14;;;;;;;1.65;0.63;;;16.20;97.30;;;;;;5052997;28;20059;-71
2023/03/23 03:02:47;;;;;;;3.25;0.70;;;16.20;97.30;;;;;;5053262;28;20079;-71
2023/03/23 03:05:21;;;;;;;;;;;16.10;97.20;;;;;;5053598;28;20028;-72
2023/03/23 03:08:27;;;;;;;2.75;0.88;;;16.10;97.10;;;;;;5053253;28;19905;-71
2023/03/23 03:11:03;;;;;;;2.38;0.68;;;16.10;97.20;;;;;;5049027;28;20107;-71
2023/03/23 03:13:31;;;;;;;1.95;0.77;;;16.10;97.20;;;;;;5052781;28;20079;-72
2023/03/23 03:16:21;;;;;;;3.85;0.65;;;16.10;97.20;;;;;;5052908;28;20033;-71
2023/03/23 03:18:58;;;;;;;3.25;0.90;;;16.10;97.20;;;;;;5052868;28;20025;-72
2023/03/23 03:21:29;;;;;;;1.85;0.73;;;16.10;97.20;;;;;;5053286;28;20021;-71
2023/03/23 03:24:00;;;;;;;1.77;0.45;;;16.10;97.10;;;;;;5052856;28;20044;-72
2023/03/23 03:26:27;;;;;;;2.13;0.80;;;16.10;97.10;;;;;;5053078;28;20025;-72
2023/03/23 03:28:54;;;;;;;4.45;0.98;;;16.10;97.00;;;;;;5051240;28;20025;-71
2023/03/23 03:31:31;;;;;;;1.92;0.70;;;16.10;96.90;;;;;;5052965;28;20035;-72
2023/03/23 03:33:57;;;;;;;1.88;0.70;;;16.10;96.90;;;;;;5052699;28;20017;-71
2023/03/23 03:36:34;;;;;;;2.42;0.45;;;16.10;96.90;;;;;;5052725;28;20083;-72
2023/03/23 03:39:06;;;;;;;1.75;0.55;;;16.10;96.90;;;;;;5052505;28;20417;-71
2023/03/23 03:41:31;;;;;;;;;;;16.10;96.90;;;;;;5053210;28;20023;-71
2023/03/23 03:43:57;;;;;;;2.45;0.95;;;16.10;96.90;;;;;;5052269;28;19905;-71
2023/03/23 03:46:26;;;;;;;3.25;0.77;;;16.00;96.80;;;;;;5052555;28;20024;-71
2023/03/23 03:48:52;;;;;;;3.03;0.40;;;16.00;96.90;;;;;;5052449;28;20116;-71
2023/03/23 03:51:18;;;;;;;2.05;0.50;;;16.10;96.90;;;;;;5052695;28;20446;-72
2023/03/23 03:53:43;;;;;;;3.80;1.10;;;16.10;96.90;;;;;;5052178;28;20132;-71
2023/03/23 03:56:09;;;;;;;1.85;0.60;;;16.00;96.90;;;;;;5052505;28;20054;-72
2023/03/23 03:58:35;;;;;;;2.65;0.82;;;16.00;96.90;;;;;;5051947;28;20029;-72
2023/03/23 04:01:02;;;;;;;2.88;0.60;;;15.90;96.90;;;;;;5052373;28;20126;-72
2023/03/23 04:03:27;;;;;;;3.70;0.70;;;15.90;97.00;;;;;;5051599;28;20054;-71
2023/03/23 04:05:56;;;;;;;3.58;0.80;;;16.00;97.00;;;;;;5052241;28;20029;-72
2023/03/23 04:08:22;;;;;;;3.97;0.88;;;16.00;97.00;;;;;;5052272;28;20032;-72
2023/03/23 04:10:49;;;;;;;2.13;0.73;;;16.00;97.00;;;;;;5052484;28;20029;-71
2023/03/23 04:13:15;;;;;;;2.65;0.60;;;16.00;96.90;;;;;;5051920;28;20029;-72
2023/03/23 04:15:40;;;;;;;2.47;0.60;;;16.00;96.90;;;;;;5051204;28;20045;-72
2023/03/23 04:18:06;;;;;;;2.25;0.60;;;16.00;96.90;;;;;;5051768;28;20056;-72
2023/03/23 04:20:32;;;;;;;4.18;0.73;;;16.00;96.90;;;;;;5051774;28;20049;-72
2023/03/23 04:23:00;;;;;;;3.67;0.82;;;16.00;96.90;;;;;;5051759;28;20470;-71
2023/03/23 04:25:27;;;;;;;3.35;0.60;;;15.90;96.80;;;;;;5052026;28;20096;-72
2023/03/23 04:27:52;;;;;;;4.28;0.90;;;15.90;96.90;;;;;;5052003;28;20017;-72
2023/03/23 04:30:24;;;;;;;2.17;0.60;;;16.00;97.00;;;;;;5051865;28;20071;-72
2023/03/23 04:32:51;;;;;;;3.10;0.60;;;16.00;96.90;;;;;;5052305;28;20033;-72
2023/03/23 04:35:19;;;;;;;3.22;1.02;;;15.90;96.90;;;;;;5052001;28;20021;-72
2023/03/23 04:37:45;;;;;;;2.40;0.70;;;16.00;96.90;;;;;;5052006;28;20556;-72
2023/03/23 04:40:12;;;;;;;3.67;0.90;;;16.00;96.90;;;;;;5051916;28;20123;-72
2023/03/23 04:42:39;;;;;;;2.67;0.55;;;16.00;96.90;;;;;;5051973;28;20048;-72
2023/03/23 04:45:07;;;;;;;4.20;1.05;;;16.00;96.90;;;;;;5051942;28;20021;-72
2023/03/23 04:47:39;;;;;;;2.53;1.02;;;16.00;96.80;;;;;;5052039;28;20063;-72
2023/03/23 04:50:11;;;;;;;3.88;0.98;;;16.00;96.80;;;;;;5051958;28;20486;-72
2023/03/23 04:52:38;;;;;;;2.53;0.95;;;16.00;96.80;;;;;;5051977;28;20363;-72
2023/03/23 04:55:05;;;;;;;2.83;0.60;;;15.90;96.80;;;;;;5048169;28;20076;-72
2023/03/23 04:57:31;;;;;;;2.30;0.77;;;15.90;96.70;;;;;;5051523;28;20090;-72
2023/03/23 04:59:57;;;;;;;3.33;0.88;;;15.90;96.70;;;;;;5051173;28;20512;-72
2023/03/23 05:02:22;;;;;;;2.50;0.75;;;15.90;96.70;;;;;;5051936;28;20052;-72
2023/03/23 05:04:48;;;;;;;4.85;1.00;;;15.90;96.70;;;;;;5051794;28;20486;-72
2023/03/23 05:07:15;;;;;;;3.05;0.95;;;15.90;96.60;;;;;;5051803;28;20352;-72
2023/03/23 05:09:41;;;;;;;2.92;1.00;;;15.90;96.70;;;;;;5051397;28;20100;-72
2023/03/23 05:12:09;;;;;;;5.75;1.02;;;15.90;96.70;;;;;;5050494;28;20025;-72
2023/03/23 05:14:35;;;;;;;3.33;0.82;;;15.90;96.70;;;;;;5052182;28;20075;-72
2023/03/23 05:17:01;;;;;;;3.33;0.90;;;15.80;96.70;;;;;;5055497;28;20060;-72
2023/03/23 05:19:27;;;;;;;2.95;0.95;;;15.90;96.70;;;;;;5055252;28;20048;-72
2023/03/23 05:21:54;;;;;;;4.85;1.02;;;15.90;96.70;;;;;;5055590;28;20023;-72
2023/03/23 05:24:19;;;;;;;4.70;1.10;;;15.90;96.70;;;;;;5054873;28;20091;-72
2023/03/23 05:26:48;;;;;;;4.40;0.98;;;15.90;96.60;;;;;;5055043;28;20054;-72
2023/03/23 05:29:14;;;;;;;4.60;1.10;;;15.90;96.70;;;;;;5055040;28;20035;-72
2023/03/23 05:31:39;;;;;;;3.10;0.57;;;15.90;96.60;;;;;;5055096;28;20033;-71
2023/03/23 05:34:05;;;;;;;4.57;1.15;;;15.90;96.60;;;;;;5055178;28;20104;-72
2023/03/23 05:36:31;;;;;;;3.53;1.00;;;15.90;96.60;;;;;;5054887;28;20033;-73
2023/03/23 05:38:56;;;;;;;2.90;0.68;;;16.10;96.20;;;;;;5054394;28;20441;-73
2023/03/23 05:41:22;;;;;;;6.28;1.67;;;16.00;96.30;;;;;;5054778;28;20038;-73
2023/03/23 05:43:48;;;;;;;5.28;1.30;;;15.90;95.70;;;;;;5054766;28;20048;-73
2023/03/23 05:46:14;;;;;;;4.70;1.30;;;16.00;96.10;;;;;;5054785;28;20449;-73
2023/03/23 05:48:40;;;;;;;8.02;1.63;;;16.20;96.30;;;;;;5052817;28;20021;-74
2023/03/23 05:51:05;;;;;;;7.22;1.42;;;16.20;96.00;;;;;;5040229;28;20108;-74
2023/03/23 05:53:31;;;;;;;8.13;1.70;;;16.20;95.90;;;;;;5034909;28;20099;-74
2023/03/23 05:56:01;;;;;;;3.67;1.15;;;16.20;95.90;;;;;;5054554;28;20090;-73
2023/03/23 05:58:27;;;;;;;5.30;1.60;;;16.20;96.30;;;;;;5054390;28;20037;-74
2023/03/23 06:00:53;;;;;;;5.22;1.80;;;16.10;96.40;;;;;;5053157;28;20050;-73
2023/03/23 06:03:19;;;;;;;4.45;1.25;;;15.80;97.30;;;;;;5043990;28;20072;-74
2023/03/23 06:05:45;;;;;;;5.47;1.40;;;15.80;97.30;;;;;;5060799;28;20031;-75
2023/03/23 06:08:12;;;;;;;6.78;2.13;;;15.60;98.00;;;;;;5072551;28;20028;-74
2023/03/23 06:10:37;;;;;;;7.97;2.13;;;15.00;99.90;;;;;;5073999;28;20017;-72
2023/03/23 06:13:04;;;;;;;7.35;2.10;;;14.50;99.90;;;;;;5074117;28;20047;-72
2023/03/23 06:15:32;;;;;;;3.72;1.23;;;14.40;99.90;;;;;;5074063;28;20063;-73
2023/03/23 06:18:02;;;;;;;4.72;0.88;;;14.60;99.90;;;;;;5045789;28;20029;-74
2023/03/23 06:20:28;;;;;;;7.72;1.48;;;14.80;99.90;;;;;;5042911;28;20508;-72
2023/03/23 06:22:55;;;;;;;6.47;1.60;;;14.60;99.90;;;;;;5043082;28;20021;-72
2023/03/23 06:25:22;;;;;;;5.07;1.05;;;14.40;99.90;;;;;;5043403;28;20051;-73
2023/03/23 06:27:48;;;;;;;11.32;1.40;;;15.00;99.40;;;;;;5031382;28;20029;-73
2023/03/23 06:30:17;;;;;;;4.80;0.90;;;15.50;98.50;;;;;;5035356;28;20018;-73
2023/03/23 06:32:45;;;;;;;3.65;1.20;;;15.50;98.10;;;;;;5044588;28;20047;-74
2023/03/23 06:35:11;;;;;;;3.47;0.75;;;15.60;97.90;;;;;;5048249;28;20022;-73
2023/03/23 06:37:37;;;;;;;5.07;0.95;;;15.70;97.60;;;;;;5043076;28;20390;-73
2023/03/23 06:40:08;;;;;;;3.08;0.70;;;15.70;97.50;;;;;;5041040;28;20036;-73
2023/03/23 06:42:35;;;;;;;4.35;0.93;;;15.70;97.30;;;;;;5045407;28;20045;-73
2023/03/23 06:45:02;;;;;;;4.75;1.08;;;15.80;97.60;;;;;;5034843;28;20021;-73
2023/03/23 06:47:29;;;;;;;6.60;1.23;;;15.80;97.50;;;;;;5042072;28;20462;-73
2023/03/23 06:49:55;;;;;;;5.43;1.45;;;15.90;97.50;;;;;;5047524;28;20591;-74
2023/03/23 06:52:22;;;;;;;6.18;1.27;;;15.90;97.50;;;;;;5034462;28;20390;-73
2023/03/23 06:54:51;;;;;;;8.40;1.50;;;15.90;97.60;;;;;;5046060;28;20383;-71
2023/03/23 06:57:17;;;;;;;7.50;1.52;;;15.90;97.60;;;;;;5042368;28;20501;-74
2023/03/23 06:59:43;;;;;;;8.65;1.45;;;15.90;97.60;;;;;;5045377;28;20065;-74
2023/03/23 07:02:13;;;;;;;8.13;1.13;;;15.90;97.60;;;;;;5045417;28;20025;-75
2023/03/23 07:04:40;;;;;;;8.43;1.30;;;15.90;97.50;;;;;;5032039;28;20500;-72
2023/03/23 07:07:08;;;;;;;8.32;1.38;;;15.90;97.60;;;;;;5041691;28;20025;-73
2023/03/23 07:09:34;;;;;;;11.55;1.30;;;15.90;97.60;;;;;;5039386;28;20025;-72
2023/03/23 07:11:59;;;;;;;16.17;2.50;;;15.90;97.70;;;;;;5032820;28;20068;-73
2023/03/23 07:14:26;;;;;;;27.10;2.25;;;15.90;98.00;;;;;;5038495;28;20044;-72
2023/03/23 07:16:51;;;;;;;22.63;2.72;;;15.90;98.30;;;;;;5038627;28;20025;-70
2023/03/23 07:19:17;;;;;;;18.30;1.83;;;15.90;98.40;;;;;;5034655;28;20033;-71
2023/03/23 07:21:43;;;;;;;13.23;1.73;;;15.90;98.30;;;;;;5031991;28;20033;-71
2023/03/23 07:24:13;;;;;;;50.85;5.78;;;15.90;98.10;;;;;;5033441;28;20021;-74
2023/03/23 07:26:42;;;;;;;10.15;2.00;;;15.90;98.00;;;;;;5033374;28;20421;-76
2023/03/23 07:29:09;;;;;;;21.05;2.15;;;15.90;98.00;;;;;;5033063;28;20033;-70
2023/03/23 07:31:35;;;;;;;11.00;1.70;;;15.90;97.90;;;;;;5032980;28;20088;-74
2023/03/23 07:34:02;;;;;;;16.63;2.20;;;15.90;97.70;;;;;;5036087;28;20021;-75
2023/03/23 07:36:28;;;;;;;9.27;1.30;;;15.90;97.80;;;;;;5051197;28;20021;-74
2023/03/23 07:38:54;;;;;;;14.40;1.88;;;15.90;98.70;;;;;;5049232;28;20086;-74
2023/03/23 07:41:20;;;;;;;15.30;1.90;;;15.90;99.20;;;;;;5033219;28;20024;-74
2023/03/23 07:43:46;;;;;;;10.45;1.23;;;15.90;99.80;;;;;;5037777;28;20036;-74
2023/03/23 07:46:12;;;;;;;4.28;1.02;;;15.90;99.90;;;;;;5046149;28;20064;-74
2023/03/23 07:48:38;;;;;;;4.47;0.88;;;15.90;99.90;;;;;;5040689;28;20053;-74
2023/03/23 07:51:05;;;;;;;8.73;1.33;;;15.90;99.50;;;;;;5046122;28;20498;-74
2023/03/23 07:53:30;;;;;;;6.20;1.08;;;15.90;99.20;;;;;;5042322;28;20109;-72
2023/03/23 07:55:57;;;;;;;3.33;0.85;;;15.90;99.10;;;;;;5043747;28;20057;-73
2023/03/23 07:58:22;;;;;;;6.53;1.30;;;15.90;99.00;;;;;;5037643;28;20021;-74
2023/03/23 08:00:48;;;;;;;5.60;1.35;;;15.90;98.80;;;;;;5049634;28;20075;-76
2023/03/23 08:03:15;;;;;;;5.85;1.20;;;15.90;98.70;;;;;;5037774;28;20067;-73
2023/03/23 08:05:42;;;;;;;5.05;1.13;;;15.80;98.60;;;;;;5041100;28;20042;-71
2023/03/23 08:08:09;;;;;;;4.35;1.20;;;15.80;98.60;;;;;;5042049;28;20025;-73
2023/03/23 08:10:35;;;;;;;4.03;1.38;;;15.70;98.80;;;;;;5039649;28;20100;-72
2023/03/23 08:13:01;;;;;;;27.20;3.08;;;15.70;98.80;;;;;;5032261;28;20109;-75
2023/03/23 08:15:28;;;;;;;39.78;4.07;;;15.70;98.80;;;;;;5032258;28;20117;-69
2023/03/23 08:17:54;;;;;;;25.08;3.22;;;15.70;98.80;;;;;;5032316;28;20022;-69
2023/03/23 08:20:20;;;;;;;24.63;3.40;;;15.70;98.70;;;;;;5032051;28;20510;-70
2023/03/23 08:22:52;;;;;;;26.75;3.10;;;15.70;98.70;;;;;;5032437;28;20095;-72
2023/03/23 08:25:19;;;;;;;19.90;2.10;;;15.80;98.70;;;;;;5034150;28;20024;-73
2023/03/23 08:27:45;;;;;;;16.58;2.03;;;15.80;98.60;;;;;;5048286;28;20024;-71
2023/03/23 08:30:17;;;;;;;14.30;2.10;;;15.80;98.60;;;;;;5047396;28;20029;-71
2023/03/23 08:32:44;;;;;;;9.27;1.90;;;15.70;98.70;;;;;;5033984;28;20483;-70
2023/03/23 08:35:11;;;;;;;7.68;1.23;;;15.80;98.90;;;;;;5037993;28;20041;-71
2023/03/23 08:37:38;;;;;;;7.75;1.42;;;15.70;98.90;;;;;;5041001;28;20045;-71
2023/03/23 08:40:11;;;;;;;12.02;1.58;;;15.80;98.90;;;;;;5031906;28;20048;-71
2023/03/23 08:42:42;;;;;;;9.07;1.50;;;15.70;99.10;;;;;;5042708;28;20105;-70
2023/03/23 08:45:11;;;;;;;10.75;1.63;;;15.70;99.40;;;;;;5034756;28;20021;-71
2023/03/23 08:47:37;;;;;;;13.88;1.75;;;15.80;99.40;;;;;;5036568;28;20020;-71
2023/03/23 08:50:05;;;;;;;6.65;1.33;;;15.80;99.40;;;;;;5033154;28;20017;-71
2023/03/23 08:52:30;;;;;;;13.32;1.55;;;15.70;99.30;;;;;;5035963;28;20037;-71
2023/03/23 08:54:56;;;;;;;16.15;2.45;;;15.70;99.30;;;;;;5046036;28;20021;-70
2023/03/23 08:57:23;;;;;;;7.55;1.80;;;15.80;99.40;;;;;;5036038;28;20021;-71
2023/03/23 08:59:48;;;;;;;7.07;1.55;;;15.80;99.20;;;;;;5040575;28;20079;-71
2023/03/23 09:02:14;;;;;;;9.52;1.48;;;15.70;99.30;;;;;;5040421;28;20041;-70
2023/03/23 09:04:42;;;;;;;7.35;1.30;;;15.70;99.40;;;;;;5046620;28;20026;-71
2023/03/23 09:07:09;;;;;;;6.57;1.20;;;15.80;99.30;;;;;;5036137;28;20013;-70
2023/03/23 09:09:37;;;;;;;4.68;1.10;;;15.80;99.20;;;;;;5049986;28;20021;-71
2023/03/23 09:12:03;;;;;;;6.72;1.30;;;15.80;99.10;;;;;;5050328;28;20021;-70
2023/03/23 09:14:28;;;;;;;5.95;0.90;;;15.80;98.90;;;;;;5043183;28;20021;-70
2023/03/23 09:16:54;;;;;;;6.38;1.27;;;15.80;98.90;;;;;;5045354;28;20083;-70
2023/03/23 09:19:20;;;;;;;7.05;1.50;;;15.80;98.80;;;;;;5038312;28;20036;-69
2023/03/23 09:21:46;;;;;;;10.80;1.67;;;15.80;98.70;;;;;;5045365;28;20027;-69
2023/03/23 09:24:12;;;;;;;10.32;2.00;;;15.80;98.70;;;;;;5054200;28;20115;-74
2023/03/23 09:26:37;;;;;;;20.02;2.38;;;15.80;98.60;;;;;;5048984;28;20478;-76
2023/03/23 09:29:03;;;;;;;15.90;2.17;;;15.90;98.40;;;;;;5044502;28;20044;-76
2023/03/23 09:31:31;;;;;;;21.50;2.45;;;15.90;98.40;;;;;;5049632;28;20027;-74
2023/03/23 09:33:58;;;;;;;24.55;2.72;;;15.90;98.40;;;;;;5035734;28;20044;-73
2023/03/23 09:36:25;;;;;;;13.10;2.33;;;15.90;98.40;;;;;;5049603;28;20485;-76
2023/03/23 09:38:52;;;;;;;16.63;2.08;;;16.00;98.30;;;;;;5043848;28;20041;-70
2023/03/23 09:41:44;;;;;;;12.13;2.28;;;16.00;98.20;;;;;;5044361;28;20047;-74
2023/03/23 09:44:30;;;;;;;24.15;2.28;;;16.00;98.10;;;;;;5051963;28;20029;-69
2023/03/23 09:47:02;;;;;;;10.30;2.20;;;16.00;98.10;;;;;;5054208;28;20033;-66
2023/03/23 09:49:37;;;;;;;11.77;1.80;;;16.00;98.00;;;;;;5054819;28;20025;-67
2023/03/23 09:52:17;;;;;;;11.02;1.40;;;16.00;98.00;;;;;;5054639;28;20041;-66
2023/03/23 09:54:51;;;;;;;8.85;2.05;;;16.00;97.80;;;;;;5054986;28;20033;-69
2023/03/23 09:57:32;;;;;;;10.07;1.48;;;16.00;97.80;;;;;;5055904;28;20021;-72
2023/03/23 10:00:07;;;;;;;8.95;1.63;;;16.00;97.70;;;;;;5056214;28;20041;-71
2023/03/23 10:02:40;;;;;;;7.60;1.25;;;16.00;97.70;;;;;;5055290;28;20107;-70
2023/03/23 10:05:32;;;;;;;10.27;1.30;;;16.00;97.60;;;;;;5056049;28;20136;-68
2023/03/23 10:07:59;;;;;;;9.40;1.55;;;16.10;97.50;;;;;;5056478;28;20397;-70
2023/03/23 10:10:33;;;;;;;7.80;1.20;;;16.10;97.40;;;;;;5055853;28;20024;-69
2023/03/23 10:13:10;;;;;;;9.57;1.52;;;16.10;97.40;;;;;;5055628;28;20074;-69
2023/03/23 10:15:39;;;;;;;8.32;1.13;;;16.20;97.40;;;;;;5054349;28;20045;-67
2023/03/23 10:18:43;;;;;;;6.80;1.30;;;16.10;97.30;;;;;;5054042;28;20029;-70
2023/03/23 10:21:17;;;;;;;4.15;1.15;;;16.20;97.30;;;;;;5051772;28;20540;-70
2023/03/23 10:23:58;;;;;;;5.25;1.50;;;16.20;97.20;;;;;;5054656;28;20111;-70
2023/03/23 10:26:55;;;;;;;6.18;1.20;;;16.20;97.10;;;;;;5054016;28;20044;-69
2023/03/23 10:29:23;;;;;;;7.00;1.75;;;16.20;97.10;;;;;;5053939;28;20474;-67
2023/03/23 10:31:58;;;;;;;5.35;0.93;;;16.20;97.00;;;;;;5053299;28;20082;-72
2023/03/23 10:34:36;;;;;;;4.85;0.82;;;16.20;97.00;;;;;;5049731;28;20025;-74
2023/03/23 10:37:01;;;;;;;2.47;0.60;;;16.20;96.90;;;;;;5053050;28;20025;-72
2023/03/23 10:39:34;;;;;;;2.97;0.60;;;16.20;96.90;;;;;;5053823;28;20154;-74
2023/03/23 10:42:06;;;;;;;;;;;16.20;96.90;;;;;;5054086;28;20017;-81
2023/03/23 10:44:33;;;;;;;4.80;0.90;;;16.20;96.80;;;;;;5046867;28;20381;-73
2023/03/23 10:47:04;;;;;;;5.97;1.13;;;16.20;96.80;;;;;;5035443;28;20108;-69
2023/03/23 10:49:48;;;;;;;5.10;1.00;;;16.30;96.80;;;;;;5052619;28;20025;-74
2023/03/23 10:52:31;;;;;;;4.13;1.00;;;16.30;96.80;;;;;;5047695;28;20091;-76
2023/03/23 10:55:10;;;;;;;4.10;0.90;;;16.30;97.00;;;;;;5042789;28;20017;-70
2023/03/23 10:57:59;;;;;;;2.92;1.00;;;16.30;96.90;;;;;;5061088;28;20029;-73
2023/03/23 11:00:28;;;;;;;5.85;1.13;;;16.30;96.90;;;;;;5068139;28;20401;-72
2023/03/23 11:03:03;;;;;;;3.65;0.98;;;16.30;97.00;;;;;;5056313;28;20086;-73
2023/03/23 11:05:39;;;;;;;5.63;1.33;;;16.40;97.00;;;;;;5043403;28;20520;-70
2023/03/23 11:08:13;;;;;;;7.30;1.30;;;16.40;97.00;;;;;;5053036;28;20043;-73
2023/03/23 11:10:47;;;;;;;11.23;2.28;;;16.40;96.90;;;;;;5067815;28;20470;-77
2023/03/23 11:13:19;;;;;;;7.82;1.52;;;16.50;96.80;;;;;;5043394;28;20119;-70
2023/03/23 11:15:46;;;;;;;7.25;1.85;;;16.50;96.60;;;;;;5037331;28;20741;-74
2023/03/23 11:18:45;;;;;;;9.48;1.80;;;16.50;96.70;;;;;;5043046;28;20017;-72
2023/03/23 11:21:13;;;;;;;11.20;1.83;;;16.60;96.70;;;;;;5043864;28;20123;-73
2023/03/23 11:23:46;;;;;;;13.55;2.17;;;16.50;96.70;;;;;;5054388;28;20037;-68
2023/03/23 11:26:17;;;;;;;10.82;1.98;;;16.50;96.60;;;;;;5052467;28;20082;-71
2023/03/23 11:28:53;;;;;;;8.43;2.22;;;16.50;96.60;;;;;;5046380;28;20043;-71
2023/03/23 11:31:36;;;;;;;12.95;2.40;;;16.50;96.50;;;;;;5055817;28;20039;-75
2023/03/23 11:34:15;;;;;;;10.30;2.00;;;16.50;96.50;;;;;;5038292;28;20151;-73
2023/03/23 11:36:58;;;;;;;8.15;2.10;;;16.60;96.40;;;;;;5067721;28;20021;-74
2023/03/23 11:39:29;;;;;;;9.25;2.13;;;16.60;96.70;;;;;;5045282;28;20090;-74
2023/03/23 11:41:57;;;;;;;13.77;2.33;;;16.60;96.70;;;;;;5038382;28;20506;-69
2023/03/23 11:44:25;;;;;;;8.93;1.88;;;16.60;96.90;;;;;;5065162;28;20513;-72
2023/03/23 11:47:16;;;;;;;8.15;2.00;;;16.60;96.70;;;;;;5053157;28;20025;-72
2023/03/23 11:50:17;;;;;;;10.50;1.92;;;16.60;96.50;;;;;;5062665;28;20097;-72
2023/03/23 11:53:07;;;;;;;7.95;1.75;;;16.60;96.50;;;;;;5054317;28;20020;-74
2023/03/23 11:55:54;;;;;;;7.75;1.67;;;16.70;96.50;;;;;;5061140;28;20560;-70
2023/03/23 11:58:21;;;;;;;9.23;2.63;;;16.60;96.40;;;;;;5041386;28;20026;-68
2023/03/23 12:00:56;;;;;;;7.50;1.75;;;16.70;96.30;;;;;;5049757;28;20052;-73
2023/03/23 12:03:35;;;;;;;9.68;1.77;;;16.70;96.60;;;;;;5045288;28;20025;-77
2023/03/23 12:06:02;;;;;;;7.70;1.70;;;16.70;96.60;;;;;;5048376;28;20117;-72
2023/03/23 12:09:01;;;;;;;7.88;1.80;;;16.70;96.80;;;;;;5052846;28;20146;-71
2023/03/23 12:11:45;;;;;;;13.48;2.30;;;16.70;96.80;;;;;;5061155;28;20086;-76
2023/03/23 12:14:28;;;;;;;12.30;1.90;;;16.70;96.90;;;;;;5054611;28;20067;-77
2023/03/23 12:17:16;;;;;;;13.00;2.53;;;16.70;96.90;;;;;;5038386;28;20113;-68
2023/03/23 12:19:45;;;;;;;13.43;1.90;;;16.70;96.90;;;;;;5046188;28;20095;-76
2023/03/23 12:22:32;;;;;;;12.93;2.53;;;16.70;96.90;;;;;;5039928;28;20026;-69
2023/03/23 12:25:17;;;;;;;9.75;2.45;;;16.70;96.90;;;;;;5045658;28;20494;-76
2023/03/23 12:27:59;;;;;;;7.70;2.17;;;16.80;97.00;;;;;;5046212;28;20062;-75
2023/03/23 12:30:31;;;;;;;8.07;1.65;;;16.70;97.30;;;;;;5051295;28;20470;-69
2023/03/23 12:33:18;;;;;;;12.75;2.13;;;16.70;97.20;;;;;;5045742;28;20032;-74
2023/03/23 12:36:03;;;;;;;8.55;1.88;;;16.70;97.20;;;;;;5049340;28;20108;-75
2023/03/23 12:38:54;;;;;;;7.75;1.67;;;16.70;97.10;;;;;;5052073;28;20028;-73
2023/03/23 12:41:53;;;;;;;5.88;2.03;;;16.70;97.20;;;;;;5041408;28;20510;-69
2023/03/23 12:44:39;;;;;;;10.65;3.47;;;16.70;97.60;;;;;;5046751;28;20389;-76
2023/03/23 12:47:28;;;;;;;10.13;4.43;;;16.70;99.10;;;;;;5040069;28;20108;-70
2023/03/23 12:50:03;;;;;;;13.98;5.28;;;16.70;99.80;;;;;;5047124;28;20060;-70
2023/03/23 12:52:42;;;;;;;15.05;7.10;;;16.70;99.90;;;;;;5041740;28;20489;-68
2023/03/23 12:55:29;;;;;;;13.63;8.13;;;16.80;99.90;;;;;;5050972;28;20033;-71
2023/03/23 12:58:07;;;;;;;21.55;6.85;;;16.80;99.90;;;;;;5053351;28;20037;-71
2023/03/23 13:00:54;;;;;;;14.27;8.27;;;16.80;99.90;;;;;;5040014;28;20116;-80
2023/03/23 13:03:46;;;;;;;13.85;7.80;;;16.80;99.90;;;;;;5035742;28;20467;-69